sensor_id;sensor_type;location;lat;lon;timestamp;P1;durP1;ratioP1;P2;durP2;ratioP2
25559;SDS011;13450;49.374;8.584;2022-11-20T00:01:44;9.20;;;3.45;;
25559;SDS011;13450;49.374;8.584;2022-11-20T00:04:10;8.23;;;3.10;;
25559;SDS011;13450;49.374;8.584;2022-11-20T00:06:36;7.90;;;3.10;;
25559;SDS011;13450;49.374;8.584;2022-11-20T00:09:02;8.52;;;3.28;;
25559;SDS011;13450;49.374;8.584;2022-11-20T00:11:28;7.95;;;2.97;;
25559;SDS011;13450;49.374;8.584;2022-11-20T00:13:55;6.72;;;2.40;;
25559;SDS011;13450;49.374;8.584;2022-11-20T00:16:22;7.72;;;3.35;;
25559;SDS011;13450;49.374;8.584;2022-11-20T00:21:19;6.63;;;2.70;;
25559;SDS011;13450;49.374;8.584;2022-11-20T00:23:48;8.27;;;3.50;;
25559;SDS011;13450;49.374;8.584;2022-11-20T00:26:16;8.45;;;3.00;;
25559;SDS011;13450;49.374;8.584;2022-11-20T00:28:43;8.45;;;3.30;;
25559;SDS011;13450;49.374;8.584;2022-11-20T00:31:14;10.48;;;3.72;;
25559;SDS011;13450;49.374;8.584;2022-11-20T00:33:40;8.38;;;3.22;;
25559;SDS011;13450;49.374;8.584;2022-11-20T00:36:08;9.60;;;2.88;;
25559;SDS011;13450;49.374;8.584;2022-11-20T00:38:35;5.88;;;2.67;;
25559;SDS011;13450;49.374;8.584;2022-11-20T00:41:02;8.50;;;3.30;;
25559;SDS011;13450;49.374;8.584;2022-11-20T00:43:29;8.98;;;3.35;;
25559;SDS011;13450;49.374;8.584;2022-11-20T00:45:58;9.27;;;3.47;;
25559;SDS011;13450;49.374;8.584;2022-11-20T00:50:50;7.68;;;3.03;;
25559;SDS011;13450;49.374;8.584;2022-11-20T00:53:15;8.75;;;2.92;;
25559;SDS011;13450;49.374;8.584;2022-11-20T00:55:43;9.73;;;3.13;;
25559;SDS011;13450;49.374;8.584;2022-11-20T00:58:17;7.18;;;2.60;;
25559;SDS011;13450;49.374;8.584;2022-11-20T01:00:42;9.85;;;3.53;;
25559;SDS011;13450;49.374;8.584;2022-11-20T01:03:08;6.93;;;2.97;;
25559;SDS011;13450;49.374;8.584;2022-11-20T01:05:34;11.40;;;3.80;;
25559;SDS011;13450;49.374;8.584;2022-11-20T01:08:00;8.30;;;3.20;;
25559;SDS011;13450;49.374;8.584;2022-11-20T01:10:26;10.77;;;3.75;;
25559;SDS011;13450;49.374;8.584;2022-11-20T01:12:51;7.05;;;3.25;;
25559;SDS011;13450;49.374;8.584;2022-11-20T01:15:36;10.73;;;3.75;;
25559;SDS011;13450;49.374;8.584;2022-11-20T01:18:02;8.60;;;3.25;;
25559;SDS011;13450;49.374;8.584;2022-11-20T01:20:27;9.20;;;3.35;;
25559;SDS011;13450;49.374;8.584;2022-11-20T01:22:52;8.90;;;3.53;;
25559;SDS011;13450;49.374;8.584;2022-11-20T01:25:17;6.38;;;2.80;;
25559;SDS011;13450;49.374;8.584;2022-11-20T01:27:43;10.32;;;3.58;;
25559;SDS011;13450;49.374;8.584;2022-11-20T01:30:10;11.55;;;4.15;;
25559;SDS011;13450;49.374;8.584;2022-11-20T01:32:39;9.20;;;3.53;;
25559;SDS011;13450;49.374;8.584;2022-11-20T01:35:07;10.35;;;3.40;;
25559;SDS011;13450;49.374;8.584;2022-11-20T01:37:34;10.85;;;4.15;;
25559;SDS011;13450;49.374;8.584;2022-11-20T01:40:00;8.93;;;3.58;;
25559;SDS011;13450;49.374;8.584;2022-11-20T01:42:25;9.82;;;3.72;;
25559;SDS011;13450;49.374;8.584;2022-11-20T01:48:14;12.55;;;4.50;;
25559;SDS011;13450;49.374;8.584;2022-11-20T01:50:40;7.13;;;2.58;;
25559;SDS011;13450;49.374;8.584;2022-11-20T01:53:08;6.90;;;2.55;;
25559;SDS011;13450;49.374;8.584;2022-11-20T01:55:40;7.30;;;2.60;;
25559;SDS011;13450;49.374;8.584;2022-11-20T01:58:13;7.35;;;2.72;;
25559;SDS011;13450;49.374;8.584;2022-11-20T02:00:38;8.25;;;3.00;;
25559;SDS011;13450;49.374;8.584;2022-11-20T02:03:05;9.57;;;3.63;;
25559;SDS011;13450;49.374;8.584;2022-11-20T02:05:41;12.30;;;4.28;;
25559;SDS011;13450;49.374;8.584;2022-11-20T02:08:14;11.48;;;3.55;;
25559;SDS011;13450;49.374;8.584;2022-11-20T02:10:40;10.63;;;3.53;;
25559;SDS011;13450;49.374;8.584;2022-11-20T02:13:05;11.18;;;3.92;;
25559;SDS011;13450;49.374;8.584;2022-11-20T02:15:49;12.07;;;4.00;;
25559;SDS011;13450;49.374;8.584;2022-11-20T02:18:16;12.85;;;4.50;;
25559;SDS011;13450;49.374;8.584;2022-11-20T02:20:44;9.82;;;3.60;;
25559;SDS011;13450;49.374;8.584;2022-11-20T02:23:12;16.02;;;4.28;;
25559;SDS011;13450;49.374;8.584;2022-11-20T02:25:55;8.80;;;3.47;;
25559;SDS011;13450;49.374;8.584;2022-11-20T02:28:23;12.98;;;4.30;;
25559;SDS011;13450;49.374;8.584;2022-11-20T02:30:48;11.57;;;4.25;;
25559;SDS011;13450;49.374;8.584;2022-11-20T02:33:14;8.38;;;3.63;;
25559;SDS011;13450;49.374;8.584;2022-11-20T02:35:40;10.32;;;3.70;;
25559;SDS011;13450;49.374;8.584;2022-11-20T02:38:09;12.68;;;4.13;;
25559;SDS011;13450;49.374;8.584;2022-11-20T02:40:34;9.70;;;3.65;;
25559;SDS011;13450;49.374;8.584;2022-11-20T02:43:00;10.60;;;3.35;;
25559;SDS011;13450;49.374;8.584;2022-11-20T02:45:25;10.43;;;3.38;;
25559;SDS011;13450;49.374;8.584;2022-11-20T02:47:50;10.38;;;3.70;;
25559;SDS011;13450;49.374;8.584;2022-11-20T02:50:16;12.30;;;3.63;;
25559;SDS011;13450;49.374;8.584;2022-11-20T02:52:41;8.32;;;3.40;;
25559;SDS011;13450;49.374;8.584;2022-11-20T02:55:07;8.85;;;3.60;;
25559;SDS011;13450;49.374;8.584;2022-11-20T02:57:35;11.27;;;3.70;;
25559;SDS011;13450;49.374;8.584;2022-11-20T03:00:01;7.22;;;2.88;;
25559;SDS011;13450;49.374;8.584;2022-11-20T03:02:32;9.95;;;3.33;;
25559;SDS011;13450;49.374;8.584;2022-11-20T03:04:57;11.53;;;3.33;;
25559;SDS011;13450;49.374;8.584;2022-11-20T03:07:23;9.43;;;3.38;;
25559;SDS011;13450;49.374;8.584;2022-11-20T03:09:48;10.50;;;3.58;;
25559;SDS011;13450;49.374;8.584;2022-11-20T03:12:14;9.23;;;3.78;;
25559;SDS011;13450;49.374;8.584;2022-11-20T03:14:41;7.60;;;2.90;;
25559;SDS011;13450;49.374;8.584;2022-11-20T03:17:07;10.43;;;3.45;;
25559;SDS011;13450;49.374;8.584;2022-11-20T03:19:32;7.07;;;2.47;;
25559;SDS011;13450;49.374;8.584;2022-11-20T03:21:59;6.70;;;2.38;;
25559;SDS011;13450;49.374;8.584;2022-11-20T03:24:25;6.78;;;2.60;;
25559;SDS011;13450;49.374;8.584;2022-11-20T03:26:50;8.82;;;2.80;;
25559;SDS011;13450;49.374;8.584;2022-11-20T03:29:15;9.10;;;3.60;;
25559;SDS011;13450;49.374;8.584;2022-11-20T03:31:43;9.98;;;3.83;;
25559;SDS011;13450;49.374;8.584;2022-11-20T03:34:09;9.02;;;3.10;;
25559;SDS011;13450;49.374;8.584;2022-11-20T03:36:37;9.25;;;3.03;;
25559;SDS011;13450;49.374;8.584;2022-11-20T03:39:03;8.98;;;3.30;;
25559;SDS011;13450;49.374;8.584;2022-11-20T03:41:29;9.65;;;3.80;;
25559;SDS011;13450;49.374;8.584;2022-11-20T03:44:00;9.70;;;3.38;;
25559;SDS011;13450;49.374;8.584;2022-11-20T03:46:29;9.35;;;3.35;;
25559;SDS011;13450;49.374;8.584;2022-11-20T03:48:54;9.90;;;3.63;;
25559;SDS011;13450;49.374;8.584;2022-11-20T03:51:24;9.65;;;3.60;;
25559;SDS011;13450;49.374;8.584;2022-11-20T03:53:51;10.27;;;3.58;;
25559;SDS011;13450;49.374;8.584;2022-11-20T03:56:19;8.13;;;2.65;;
25559;SDS011;13450;49.374;8.584;2022-11-20T03:58:46;9.60;;;3.38;;
25559;SDS011;13450;49.374;8.584;2022-11-20T04:01:12;10.55;;;4.03;;
25559;SDS011;13450;49.374;8.584;2022-11-20T04:03:44;7.13;;;3.08;;
25559;SDS011;13450;49.374;8.584;2022-11-20T04:06:20;9.20;;;3.50;;
25559;SDS011;13450;49.374;8.584;2022-11-20T04:08:47;8.60;;;3.58;;
25559;SDS011;13450;49.374;8.584;2022-11-20T04:11:19;8.65;;;3.72;;
25559;SDS011;13450;49.374;8.584;2022-11-20T04:13:51;10.45;;;4.00;;
25559;SDS011;13450;49.374;8.584;2022-11-20T04:16:18;9.18;;;3.47;;
25559;SDS011;13450;49.374;8.584;2022-11-20T04:18:44;8.48;;;3.58;;
25559;SDS011;13450;49.374;8.584;2022-11-20T04:21:10;11.18;;;4.18;;
25559;SDS011;13450;49.374;8.584;2022-11-20T04:23:38;11.32;;;3.92;;
25559;SDS011;13450;49.374;8.584;2022-11-20T04:26:07;9.82;;;3.78;;
25559;SDS011;13450;49.374;8.584;2022-11-20T04:28:34;9.43;;;3.20;;
25559;SDS011;13450;49.374;8.584;2022-11-20T04:31:01;10.15;;;3.53;;
25559;SDS011;13450;49.374;8.584;2022-11-20T04:33:37;8.82;;;3.38;;
25559;SDS011;13450;49.374;8.584;2022-11-20T04:36:04;6.80;;;2.53;;
25559;SDS011;13450;49.374;8.584;2022-11-20T04:38:35;8.60;;;3.35;;
25559;SDS011;13450;49.374;8.584;2022-11-20T04:41:01;8.23;;;3.28;;
25559;SDS011;13450;49.374;8.584;2022-11-20T04:43:28;6.88;;;2.55;;
25559;SDS011;13450;49.374;8.584;2022-11-20T04:45:55;7.18;;;2.90;;
25559;SDS011;13450;49.374;8.584;2022-11-20T04:48:21;5.47;;;2.03;;
25559;SDS011;13450;49.374;8.584;2022-11-20T04:50:47;8.25;;;3.13;;
25559;SDS011;13450;49.374;8.584;2022-11-20T04:53:13;11.50;;;3.88;;
25559;SDS011;13450;49.374;8.584;2022-11-20T04:55:38;10.55;;;3.95;;
25559;SDS011;13450;49.374;8.584;2022-11-20T04:58:03;10.95;;;3.95;;
25559;SDS011;13450;49.374;8.584;2022-11-20T05:00:29;10.23;;;4.32;;
25559;SDS011;13450;49.374;8.584;2022-11-20T05:02:54;9.98;;;3.90;;
25559;SDS011;13450;49.374;8.584;2022-11-20T05:05:19;9.38;;;3.95;;
25559;SDS011;13450;49.374;8.584;2022-11-20T05:07:45;14.05;;;4.47;;
25559;SDS011;13450;49.374;8.584;2022-11-20T05:10:10;10.30;;;3.60;;
25559;SDS011;13450;49.374;8.584;2022-11-20T05:12:35;8.57;;;3.53;;
25559;SDS011;13450;49.374;8.584;2022-11-20T05:15:01;12.13;;;4.22;;
25559;SDS011;13450;49.374;8.584;2022-11-20T05:17:26;9.77;;;4.13;;
25559;SDS011;13450;49.374;8.584;2022-11-20T05:19:51;12.55;;;4.57;;
25559;SDS011;13450;49.374;8.584;2022-11-20T05:22:17;8.20;;;3.30;;
25559;SDS011;13450;49.374;8.584;2022-11-20T05:24:42;7.30;;;2.40;;
25559;SDS011;13450;49.374;8.584;2022-11-20T05:27:07;5.88;;;2.30;;
25559;SDS011;13450;49.374;8.584;2022-11-20T05:29:32;10.75;;;3.78;;
25559;SDS011;13450;49.374;8.584;2022-11-20T05:31:58;12.32;;;3.97;;
25559;SDS011;13450;49.374;8.584;2022-11-20T05:34:25;8.30;;;2.97;;
25559;SDS011;13450;49.374;8.584;2022-11-20T05:36:51;12.00;;;4.00;;
25559;SDS011;13450;49.374;8.584;2022-11-20T05:39:16;8.18;;;2.92;;
25559;SDS011;13450;49.374;8.584;2022-11-20T05:41:41;10.73;;;3.63;;
25559;SDS011;13450;49.374;8.584;2022-11-20T05:44:06;8.77;;;3.50;;
25559;SDS011;13450;49.374;8.584;2022-11-20T05:46:32;11.05;;;4.13;;
25559;SDS011;13450;49.374;8.584;2022-11-20T05:48:57;8.63;;;3.13;;
25559;SDS011;13450;49.374;8.584;2022-11-20T05:51:23;5.53;;;2.22;;
25559;SDS011;13450;49.374;8.584;2022-11-20T05:53:49;10.02;;;3.35;;
25559;SDS011;13450;49.374;8.584;2022-11-20T05:56:16;8.60;;;3.47;;
25559;SDS011;13450;49.374;8.584;2022-11-20T05:58:44;7.38;;;2.80;;
25559;SDS011;13450;49.374;8.584;2022-11-20T06:03:37;5.03;;;2.00;;
25559;SDS011;13450;49.374;8.584;2022-11-20T06:06:09;8.23;;;2.97;;
25559;SDS011;13450;49.374;8.584;2022-11-20T06:08:35;11.65;;;4.07;;
25559;SDS011;13450;49.374;8.584;2022-11-20T06:11:07;11.63;;;3.85;;
25559;SDS011;13450;49.374;8.584;2022-11-20T06:13:34;11.10;;;3.95;;
25559;SDS011;13450;49.374;8.584;2022-11-20T06:16:02;9.98;;;3.45;;
25559;SDS011;13450;49.374;8.584;2022-11-20T06:18:28;10.65;;;4.07;;
25559;SDS011;13450;49.374;8.584;2022-11-20T06:20:59;10.85;;;4.20;;
25559;SDS011;13450;49.374;8.584;2022-11-20T06:23:30;10.48;;;3.63;;
25559;SDS011;13450;49.374;8.584;2022-11-20T06:25:58;9.80;;;4.00;;
25559;SDS011;13450;49.374;8.584;2022-11-20T06:28:26;10.63;;;3.53;;
25559;SDS011;13450;49.374;8.584;2022-11-20T06:30:51;12.27;;;4.22;;
25559;SDS011;13450;49.374;8.584;2022-11-20T06:33:17;8.77;;;3.50;;
25559;SDS011;13450;49.374;8.584;2022-11-20T06:35:42;7.57;;;3.08;;
25559;SDS011;13450;49.374;8.584;2022-11-20T06:38:10;7.60;;;3.20;;
25559;SDS011;13450;49.374;8.584;2022-11-20T06:40:35;8.88;;;3.60;;
25559;SDS011;13450;49.374;8.584;2022-11-20T06:43:00;9.70;;;3.42;;
25559;SDS011;13450;49.374;8.584;2022-11-20T06:45:26;11.73;;;4.60;;
25559;SDS011;13450;49.374;8.584;2022-11-20T06:47:53;10.82;;;4.60;;
25559;SDS011;13450;49.374;8.584;2022-11-20T06:50:19;12.77;;;4.40;;
25559;SDS011;13450;49.374;8.584;2022-11-20T06:52:44;9.77;;;4.47;;
25559;SDS011;13450;49.374;8.584;2022-11-20T06:55:11;11.10;;;4.15;;
25559;SDS011;13450;49.374;8.584;2022-11-20T06:57:37;10.85;;;4.43;;
25559;SDS011;13450;49.374;8.584;2022-11-20T07:00:02;10.35;;;4.38;;
25559;SDS011;13450;49.374;8.584;2022-11-20T07:02:28;12.13;;;3.85;;
25559;SDS011;13450;49.374;8.584;2022-11-20T07:04:53;11.95;;;4.25;;
25559;SDS011;13450;49.374;8.584;2022-11-20T07:07:18;11.65;;;4.18;;
25559;SDS011;13450;49.374;8.584;2022-11-20T07:09:44;9.07;;;3.85;;
25559;SDS011;13450;49.374;8.584;2022-11-20T07:12:09;11.50;;;4.53;;
25559;SDS011;13450;49.374;8.584;2022-11-20T07:14:34;12.02;;;4.43;;
25559;SDS011;13450;49.374;8.584;2022-11-20T07:17:01;11.15;;;4.10;;
25559;SDS011;13450;49.374;8.584;2022-11-20T07:19:26;12.20;;;4.47;;
25559;SDS011;13450;49.374;8.584;2022-11-20T07:21:52;10.98;;;4.60;;
25559;SDS011;13450;49.374;8.584;2022-11-20T07:24:17;11.43;;;4.35;;
25559;SDS011;13450;49.374;8.584;2022-11-20T07:26:45;12.68;;;5.13;;
25559;SDS011;13450;49.374;8.584;2022-11-20T07:29:14;10.00;;;4.18;;
25559;SDS011;13450;49.374;8.584;2022-11-20T07:31:40;11.45;;;4.05;;
25559;SDS011;13450;49.374;8.584;2022-11-20T07:34:05;11.35;;;3.90;;
25559;SDS011;13450;49.374;8.584;2022-11-20T07:36:30;11.35;;;4.57;;
25559;SDS011;13450;49.374;8.584;2022-11-20T07:38:55;11.00;;;4.35;;
25559;SDS011;13450;49.374;8.584;2022-11-20T07:41:21;13.63;;;4.47;;
25559;SDS011;13450;49.374;8.584;2022-11-20T07:43:46;12.63;;;4.32;;
25559;SDS011;13450;49.374;8.584;2022-11-20T07:46:11;10.75;;;4.43;;
25559;SDS011;13450;49.374;8.584;2022-11-20T07:48:37;11.95;;;4.50;;
25559;SDS011;13450;49.374;8.584;2022-11-20T07:51:02;12.23;;;5.00;;
25559;SDS011;13450;49.374;8.584;2022-11-20T07:53:27;10.93;;;5.10;;
25559;SDS011;13450;49.374;8.584;2022-11-20T07:55:53;12.38;;;5.68;;
25559;SDS011;13450;49.374;8.584;2022-11-20T07:58:19;12.35;;;5.40;;
25559;SDS011;13450;49.374;8.584;2022-11-20T08:00:45;13.63;;;5.03;;
25559;SDS011;13450;49.374;8.584;2022-11-20T08:03:10;9.68;;;3.67;;
25559;SDS011;13450;49.374;8.584;2022-11-20T08:05:38;8.55;;;3.72;;
25559;SDS011;13450;49.374;8.584;2022-11-20T08:08:03;9.93;;;3.55;;
25559;SDS011;13450;49.374;8.584;2022-11-20T08:10:28;10.95;;;3.75;;
25559;SDS011;13450;49.374;8.584;2022-11-20T08:12:54;7.78;;;3.53;;
25559;SDS011;13450;49.374;8.584;2022-11-20T08:15:38;8.00;;;3.63;;
25559;SDS011;13450;49.374;8.584;2022-11-20T08:18:10;10.25;;;3.95;;
25559;SDS011;13450;49.374;8.584;2022-11-20T08:20:36;10.50;;;4.13;;
25559;SDS011;13450;49.374;8.584;2022-11-20T08:23:06;8.40;;;3.63;;
25559;SDS011;13450;49.374;8.584;2022-11-20T08:28:01;7.53;;;3.33;;
25559;SDS011;13450;49.374;8.584;2022-11-20T08:30:28;9.30;;;3.65;;
25559;SDS011;13450;49.374;8.584;2022-11-20T08:33:04;7.53;;;3.67;;
25559;SDS011;13450;49.374;8.584;2022-11-20T08:35:33;8.75;;;3.67;;
25559;SDS011;13450;49.374;8.584;2022-11-20T08:38:00;9.20;;;3.83;;
25559;SDS011;13450;49.374;8.584;2022-11-20T08:40:27;9.23;;;4.20;;
25559;SDS011;13450;49.374;8.584;2022-11-20T08:42:52;7.65;;;3.00;;
25559;SDS011;13450;49.374;8.584;2022-11-20T08:45:18;8.25;;;3.70;;
25559;SDS011;13450;49.374;8.584;2022-11-20T08:47:45;9.65;;;3.22;;
25559;SDS011;13450;49.374;8.584;2022-11-20T08:50:11;9.30;;;4.15;;
25559;SDS011;13450;49.374;8.584;2022-11-20T08:52:41;9.57;;;3.90;;
25559;SDS011;13450;49.374;8.584;2022-11-20T08:55:06;9.18;;;4.15;;
25559;SDS011;13450;49.374;8.584;2022-11-20T08:57:33;8.55;;;3.78;;
25559;SDS011;13450;49.374;8.584;2022-11-20T09:00:01;8.88;;;3.83;;
25559;SDS011;13450;49.374;8.584;2022-11-20T09:02:28;8.00;;;3.30;;
25559;SDS011;13450;49.374;8.584;2022-11-20T09:04:53;8.45;;;3.65;;
25559;SDS011;13450;49.374;8.584;2022-11-20T09:07:21;10.25;;;4.13;;
25559;SDS011;13450;49.374;8.584;2022-11-20T09:09:46;7.32;;;3.42;;
25559;SDS011;13450;49.374;8.584;2022-11-20T09:12:12;8.60;;;3.40;;
25559;SDS011;13450;49.374;8.584;2022-11-20T09:14:38;7.32;;;3.20;;
25559;SDS011;13450;49.374;8.584;2022-11-20T09:17:03;9.20;;;3.40;;
25559;SDS011;13450;49.374;8.584;2022-11-20T09:19:29;7.55;;;3.30;;
25559;SDS011;13450;49.374;8.584;2022-11-20T09:21:54;7.43;;;2.85;;
25559;SDS011;13450;49.374;8.584;2022-11-20T09:24:19;7.15;;;2.88;;
25559;SDS011;13450;49.374;8.584;2022-11-20T09:26:47;8.68;;;3.38;;
25559;SDS011;13450;49.374;8.584;2022-11-20T09:29:12;8.80;;;3.20;;
25559;SDS011;13450;49.374;8.584;2022-11-20T09:31:40;10.07;;;3.60;;
25559;SDS011;13450;49.374;8.584;2022-11-20T09:34:06;6.88;;;3.08;;
25559;SDS011;13450;49.374;8.584;2022-11-20T09:36:31;8.38;;;3.50;;
25559;SDS011;13450;49.374;8.584;2022-11-20T09:38:56;5.80;;;2.90;;
25559;SDS011;13450;49.374;8.584;2022-11-20T09:41:36;7.30;;;3.00;;
25559;SDS011;13450;49.374;8.584;2022-11-20T09:54:53;9.00;;;3.05;;
25559;SDS011;13450;49.374;8.584;2022-11-20T09:57:28;6.68;;;2.78;;
25559;SDS011;13450;49.374;8.584;2022-11-20T10:00:00;7.18;;;2.72;;
25559;SDS011;13450;49.374;8.584;2022-11-20T10:03:16;5.68;;;2.80;;
25559;SDS011;13450;49.374;8.584;2022-11-20T10:05:17;5.18;;;2.67;;
25559;SDS011;13450;49.374;8.584;2022-11-20T10:07:48;5.15;;;2.55;;
25559;SDS011;13450;49.374;8.584;2022-11-20T10:10:27;5.53;;;2.60;;
25559;SDS011;13450;49.374;8.584;2022-11-20T10:15:58;4.93;;;2.22;;
25559;SDS011;13450;49.374;8.584;2022-11-20T10:21:33;5.55;;;2.30;;
25559;SDS011;13450;49.374;8.584;2022-11-20T10:27:00;4.80;;;2.08;;
25559;SDS011;13450;49.374;8.584;2022-11-20T10:29:29;5.00;;;2.38;;
25559;SDS011;13450;49.374;8.584;2022-11-20T10:32:02;5.40;;;2.47;;
25559;SDS011;13450;49.374;8.584;2022-11-20T10:34:39;4.72;;;2.15;;
25559;SDS011;13450;49.374;8.584;2022-11-20T10:37:26;5.25;;;2.42;;
25559;SDS011;13450;49.374;8.584;2022-11-20T10:42:34;4.63;;;2.25;;
25559;SDS011;13450;49.374;8.584;2022-11-20T10:48:10;4.25;;;2.13;;
25559;SDS011;13450;49.374;8.584;2022-11-20T10:50:57;4.18;;;2.20;;
25559;SDS011;13450;49.374;8.584;2022-11-20T10:53:38;6.65;;;2.75;;
25559;SDS011;13450;49.374;8.584;2022-11-20T10:56:17;4.45;;;2.03;;
25559;SDS011;13450;49.374;8.584;2022-11-20T10:59:19;4.20;;;1.83;;
25559;SDS011;13450;49.374;8.584;2022-11-20T11:02:00;4.15;;;1.80;;
25559;SDS011;13450;49.374;8.584;2022-11-20T11:07:08;4.85;;;2.17;;
25559;SDS011;13450;49.374;8.584;2022-11-20T11:09:41;4.18;;;1.85;;
25559;SDS011;13450;49.374;8.584;2022-11-20T11:14:42;6.40;;;2.30;;
25559;SDS011;13450;49.374;8.584;2022-11-20T11:17:18;3.22;;;1.60;;
25559;SDS011;13450;49.374;8.584;2022-11-20T11:19:45;4.57;;;1.90;;
25559;SDS011;13450;49.374;8.584;2022-11-20T11:22:10;9.48;;;3.97;;
25559;SDS011;13450;49.374;8.584;2022-11-20T11:24:51;5.90;;;3.20;;
25559;SDS011;13450;49.374;8.584;2022-11-20T11:27:17;3.95;;;1.70;;
25559;SDS011;13450;49.374;8.584;2022-11-20T11:29:42;5.15;;;2.00;;
25559;SDS011;13450;49.374;8.584;2022-11-20T11:34:37;5.75;;;3.20;;
25559;SDS011;13450;49.374;8.584;2022-11-20T11:37:02;11.40;;;5.43;;
25559;SDS011;13450;49.374;8.584;2022-11-20T11:39:30;9.25;;;5.10;;
25559;SDS011;13450;49.374;8.584;2022-11-20T11:41:58;10.10;;;5.40;;
25559;SDS011;13450;49.374;8.584;2022-11-20T11:44:30;10.00;;;5.22;;
25559;SDS011;13450;49.374;8.584;2022-11-20T11:55:46;10.75;;;4.57;;
25559;SDS011;13450;49.374;8.584;2022-11-20T12:01:03;11.45;;;5.57;;
25559;SDS011;13450;49.374;8.584;2022-11-20T12:03:37;9.27;;;4.03;;
25559;SDS011;13450;49.374;8.584;2022-11-20T12:06:10;7.85;;;3.55;;
25559;SDS011;13450;49.374;8.584;2022-11-20T12:14:09;7.28;;;3.30;;
25559;SDS011;13450;49.374;8.584;2022-11-20T12:16:36;6.32;;;2.90;;
25559;SDS011;13450;49.374;8.584;2022-11-20T12:19:04;6.38;;;2.78;;
25559;SDS011;13450;49.374;8.584;2022-11-20T12:43:21;4.55;;;1.00;;
25559;SDS011;13450;49.374;8.584;2022-11-20T13:02:18;2.45;;;0.90;;
25559;SDS011;13450;49.374;8.584;2022-11-20T13:07:20;2.20;;;0.82;;
25559;SDS011;13450;49.374;8.584;2022-11-20T13:09:47;2.78;;;0.90;;
25559;SDS011;13450;49.374;8.584;2022-11-20T13:12:19;10.07;;;3.47;;
25559;SDS011;13450;49.374;8.584;2022-11-20T13:20:19;3.80;;;1.13;;
25559;SDS011;13450;49.374;8.584;2022-11-20T13:22:54;3.20;;;0.95;;
25559;SDS011;13450;49.374;8.584;2022-11-20T13:25:24;9.63;;;2.58;;
25559;SDS011;13450;49.374;8.584;2022-11-20T13:30:20;3.13;;;1.13;;
25559;SDS011;13450;49.374;8.584;2022-11-20T13:32:50;3.10;;;0.98;;
25559;SDS011;13450;49.374;8.584;2022-11-20T13:35:25;4.38;;;1.20;;
25559;SDS011;13450;49.374;8.584;2022-11-20T13:37:59;3.58;;;1.10;;
25559;SDS011;13450;49.374;8.584;2022-11-20T13:40:36;3.88;;;1.17;;
25559;SDS011;13450;49.374;8.584;2022-11-20T13:45:53;2.03;;;0.90;;
25559;SDS011;13450;49.374;8.584;2022-11-20T13:48:20;2.95;;;0.77;;
25559;SDS011;13450;49.374;8.584;2022-11-20T13:50:56;2.33;;;0.80;;
25559;SDS011;13450;49.374;8.584;2022-11-20T13:53:33;4.60;;;1.00;;
25559;SDS011;13450;49.374;8.584;2022-11-20T13:56:11;1.35;;;0.65;;
25559;SDS011;13450;49.374;8.584;2022-11-20T14:01:54;2.45;;;0.70;;
25559;SDS011;13450;49.374;8.584;2022-11-20T14:04:26;2.80;;;0.73;;
25559;SDS011;13450;49.374;8.584;2022-11-20T14:06:56;3.53;;;0.77;;
25559;SDS011;13450;49.374;8.584;2022-11-20T14:09:26;1.98;;;0.70;;
25559;SDS011;13450;49.374;8.584;2022-11-20T14:11:56;3.80;;;0.75;;
25559;SDS011;13450;49.374;8.584;2022-11-20T14:14:23;2.28;;;0.70;;
25559;SDS011;13450;49.374;8.584;2022-11-20T14:19:46;2.00;;;0.73;;
25559;SDS011;13450;49.374;8.584;2022-11-20T14:22:21;2.38;;;1.00;;
25559;SDS011;13450;49.374;8.584;2022-11-20T14:25:02;2.17;;;0.70;;
25559;SDS011;13450;49.374;8.584;2022-11-20T14:27:43;4.40;;;1.02;;
25559;SDS011;13450;49.374;8.584;2022-11-20T14:30:14;3.63;;;0.85;;
25559;SDS011;13450;49.374;8.584;2022-11-20T14:32:45;3.55;;;0.75;;
25559;SDS011;13450;49.374;8.584;2022-11-20T14:35:28;4.10;;;1.40;;
25559;SDS011;13450;49.374;8.584;2022-11-20T14:37:55;2.97;;;1.13;;
25559;SDS011;13450;49.374;8.584;2022-11-20T14:40:22;3.47;;;0.90;;
25559;SDS011;13450;49.374;8.584;2022-11-20T14:42:50;6.50;;;1.90;;
25559;SDS011;13450;49.374;8.584;2022-11-20T14:45:16;3.45;;;1.38;;
25559;SDS011;13450;49.374;8.584;2022-11-20T14:47:42;3.35;;;1.23;;
25559;SDS011;13450;49.374;8.584;2022-11-20T14:50:12;3.42;;;1.30;;
25559;SDS011;13450;49.374;8.584;2022-11-20T14:52:49;4.53;;;1.52;;
25559;SDS011;13450;49.374;8.584;2022-11-20T14:55:24;4.18;;;1.50;;
25559;SDS011;13450;49.374;8.584;2022-11-20T14:57:54;3.05;;;1.17;;
25559;SDS011;13450;49.374;8.584;2022-11-20T15:00:22;3.55;;;1.02;;
25559;SDS011;13450;49.374;8.584;2022-11-20T15:02:48;4.22;;;1.40;;
25559;SDS011;13450;49.374;8.584;2022-11-20T15:05:16;6.20;;;1.20;;
25559;SDS011;13450;49.374;8.584;2022-11-20T15:07:47;6.00;;;1.30;;
25559;SDS011;13450;49.374;8.584;2022-11-20T15:13:02;2.20;;;0.90;;
25559;SDS011;13450;49.374;8.584;2022-11-20T15:15:48;4.90;;;1.33;;
25559;SDS011;13450;49.374;8.584;2022-11-20T15:18:18;2.25;;;0.82;;
25559;SDS011;13450;49.374;8.584;2022-11-20T15:20:46;3.90;;;1.38;;
25559;SDS011;13450;49.374;8.584;2022-11-20T15:23:17;2.78;;;1.10;;
25559;SDS011;13450;49.374;8.584;2022-11-20T15:25:44;2.67;;;0.88;;
25559;SDS011;13450;49.374;8.584;2022-11-20T15:28:13;6.22;;;1.58;;
25559;SDS011;13450;49.374;8.584;2022-11-20T15:30:45;2.20;;;1.00;;
25559;SDS011;13450;49.374;8.584;2022-11-20T15:33:14;2.13;;;0.95;;
25559;SDS011;13450;49.374;8.584;2022-11-20T15:35:40;4.00;;;1.58;;
25559;SDS011;13450;49.374;8.584;2022-11-20T15:38:06;4.47;;;1.52;;
25559;SDS011;13450;49.374;8.584;2022-11-20T15:40:31;4.55;;;1.48;;
25559;SDS011;13450;49.374;8.584;2022-11-20T15:42:56;5.75;;;1.65;;
25559;SDS011;13450;49.374;8.584;2022-11-20T15:45:27;3.55;;;1.45;;
25559;SDS011;13450;49.374;8.584;2022-11-20T15:47:56;4.00;;;1.60;;
25559;SDS011;13450;49.374;8.584;2022-11-20T15:50:22;7.30;;;3.40;;
25559;SDS011;13450;49.374;8.584;2022-11-20T15:52:52;4.72;;;1.20;;
25559;SDS011;13450;49.374;8.584;2022-11-20T15:55:17;3.58;;;1.27;;
25559;SDS011;13450;49.374;8.584;2022-11-20T15:57:45;3.15;;;1.30;;
25559;SDS011;13450;49.374;8.584;2022-11-20T16:00:10;2.33;;;1.20;;
25559;SDS011;13450;49.374;8.584;2022-11-20T16:02:39;2.43;;;1.00;;
25559;SDS011;13450;49.374;8.584;2022-11-20T16:05:05;2.38;;;1.00;;
25559;SDS011;13450;49.374;8.584;2022-11-20T16:07:36;2.53;;;1.00;;
25559;SDS011;13450;49.374;8.584;2022-11-20T16:10:01;3.53;;;1.20;;
25559;SDS011;13450;49.374;8.584;2022-11-20T16:12:27;3.25;;;1.10;;
25559;SDS011;13450;49.374;8.584;2022-11-20T16:15:10;4.25;;;1.27;;
25559;SDS011;13450;49.374;8.584;2022-11-20T16:17:54;6.22;;;1.55;;
25559;SDS011;13450;49.374;8.584;2022-11-20T16:20:19;3.47;;;1.30;;
25559;SDS011;13450;49.374;8.584;2022-11-20T16:22:45;3.58;;;1.60;;
25559;SDS011;13450;49.374;8.584;2022-11-20T16:25:10;3.38;;;1.17;;
25559;SDS011;13450;49.374;8.584;2022-11-20T16:27:38;4.80;;;1.40;;
25559;SDS011;13450;49.374;8.584;2022-11-20T16:30:05;4.18;;;1.40;;
25559;SDS011;13450;49.374;8.584;2022-11-20T16:32:33;4.32;;;1.42;;
25559;SDS011;13450;49.374;8.584;2022-11-20T16:34:59;3.72;;;1.45;;
25559;SDS011;13450;49.374;8.584;2022-11-20T16:37:24;3.90;;;1.42;;
25559;SDS011;13450;49.374;8.584;2022-11-20T16:39:49;3.42;;;1.55;;
25559;SDS011;13450;49.374;8.584;2022-11-20T16:42:15;4.35;;;2.25;;
25559;SDS011;13450;49.374;8.584;2022-11-20T16:44:42;3.15;;;1.40;;
25559;SDS011;13450;49.374;8.584;2022-11-20T16:47:10;3.47;;;1.50;;
25559;SDS011;13450;49.374;8.584;2022-11-20T16:49:36;4.13;;;1.98;;
25559;SDS011;13450;49.374;8.584;2022-11-20T16:52:01;7.20;;;3.40;;
25559;SDS011;13450;49.374;8.584;2022-11-20T16:54:26;4.20;;;1.83;;